sensor_id;sensor_type;location;lat;lon;timestamp;temperature;humidity
9861;DHT22;4969;52.304;4.968;2023-02-21T00:01:15;11.76;77.73
9861;DHT22;4969;52.304;4.968;2023-02-21T00:03:59;12.24;77.70
9861;DHT22;4969;52.304;4.968;2023-02-21T00:06:45;12.52;77.71
9861;DHT22;4969;52.304;4.968;2023-02-21T00:09:29;12.48;73.90
9861;DHT22;4969;52.304;4.968;2023-02-21T00:12:13;12.65;74.82
9861;DHT22;4969;52.304;4.968;2023-02-21T00:14:57;12.67;77.06
9861;DHT22;4969;52.304;4.968;2023-02-21T00:17:41;12.72;77.11
9861;DHT22;4969;52.304;4.968;2023-02-21T00:20:26;13.51;72.43
9861;DHT22;4969;52.304;4.968;2023-02-21T00:23:11;13.27;74.26
9861;DHT22;4969;52.304;4.968;2023-02-21T00:25:55;12.71;75.15
9861;DHT22;4969;52.304;4.968;2023-02-21T00:28:40;12.41;73.86
9861;DHT22;4969;52.304;4.968;2023-02-21T00:31:24;12.30;75.68
9861;DHT22;4969;52.304;4.968;2023-02-21T00:34:08;12.91;77.33
9861;DHT22;4969;52.304;4.968;2023-02-21T00:36:52;12.51;76.70
9861;DHT22;4969;52.304;4.968;2023-02-21T00:39:38;13.24;75.30
9861;DHT22;4969;52.304;4.968;2023-02-21T00:42:22;13.28;74.48
9861;DHT22;4969;52.304;4.968;2023-02-21T00:45:07;13.07;73.85
9861;DHT22;4969;52.304;4.968;2023-02-21T00:47:51;12.79;75.43
9861;DHT22;4969;52.304;4.968;2023-02-21T00:50:35;13.05;73.29
9861;DHT22;4969;52.304;4.968;2023-02-21T00:53:19;13.02;76.07
9861;DHT22;4969;52.304;4.968;2023-02-21T00:56:05;13.03;72.70
9861;DHT22;4969;52.304;4.968;2023-02-21T00:58:49;12.75;74.89
9861;DHT22;4969;52.304;4.968;2023-02-21T01:01:33;12.62;76.06
9861;DHT22;4969;52.304;4.968;2023-02-21T01:04:17;12.62;76.06
9861;DHT22;4969;52.304;4.968;2023-02-21T01:07:01;12.02;73.98
9861;DHT22;4969;52.304;4.968;2023-02-21T01:09:45;12.96;75.54
9861;DHT22;4969;52.304;4.968;2023-02-21T01:12:31;12.99;73.21
9861;DHT22;4969;52.304;4.968;2023-02-21T01:15:15;13.47;74.87
9861;DHT22;4969;52.304;4.968;2023-02-21T01:17:59;13.45;75.46
9861;DHT22;4969;52.304;4.968;2023-02-21T01:20:43;13.28;74.80
9861;DHT22;4969;52.304;4.968;2023-02-21T01:23:27;12.73;72.41
9861;DHT22;4969;52.304;4.968;2023-02-21T01:26:11;12.64;74.20
9861;DHT22;4969;52.304;4.968;2023-02-21T01:28:57;12.82;76.89
9861;DHT22;4969;52.304;4.968;2023-02-21T01:31:41;12.36;74.10
9861;DHT22;4969;52.304;4.968;2023-02-21T01:34:26;13.47;73.93
9861;DHT22;4969;52.304;4.968;2023-02-21T01:37:10;13.75;73.66
9861;DHT22;4969;52.304;4.968;2023-02-21T01:39:54;13.12;72.69
9861;DHT22;4969;52.304;4.968;2023-02-21T01:42:38;13.44;72.14
9861;DHT22;4969;52.304;4.968;2023-02-21T01:45:40;13.44;71.31
9861;DHT22;4969;52.304;4.968;2023-02-21T01:48:26;13.37;72.47
9861;DHT22;4969;52.304;4.968;2023-02-21T01:51:13;12.76;73.56
9861;DHT22;4969;52.304;4.968;2023-02-21T01:53:58;12.75;72.69
9861;DHT22;4969;52.304;4.968;2023-02-21T01:56:43;12.78;75.62
9861;DHT22;4969;52.304;4.968;2023-02-21T01:59:27;12.65;74.16
9861;DHT22;4969;52.304;4.968;2023-02-21T02:02:17;11.83;75.10
9861;DHT22;4969;52.304;4.968;2023-02-21T02:05:03;12.41;75.57
9861;DHT22;4969;52.304;4.968;2023-02-21T02:07:48;12.50;73.81
9861;DHT22;4969;52.304;4.968;2023-02-21T02:10:34;12.79;77.27
9861;DHT22;4969;52.304;4.968;2023-02-21T02:16:18;13.00;76.43
9861;DHT22;4969;52.304;4.968;2023-02-21T02:18:59;12.89;74.79
9861;DHT22;4969;52.304;4.968;2023-02-21T02:21:47;12.75;73.01
9861;DHT22;4969;52.304;4.968;2023-02-21T02:24:48;12.67;74.92
9861;DHT22;4969;52.304;4.968;2023-02-21T02:27:59;12.07;75.33
9861;DHT22;4969;52.304;4.968;2023-02-21T02:36:37;12.26;76.24
9861;DHT22;4969;52.304;4.968;2023-02-21T02:39:14;11.61;76.12
9861;DHT22;4969;52.304;4.968;2023-02-21T02:41:48;11.86;79.51
9861;DHT22;4969;52.304;4.968;2023-02-21T02:44:23;11.97;76.98
9861;DHT22;4969;52.304;4.968;2023-02-21T02:46:52;12.67;78.21
9861;DHT22;4969;52.304;4.968;2023-02-21T02:49:22;12.36;75.49
9861;DHT22;4969;52.304;4.968;2023-02-21T02:51:51;12.88;74.17
9861;DHT22;4969;52.304;4.968;2023-02-21T02:54:19;12.65;74.67
9861;DHT22;4969;52.304;4.968;2023-02-21T02:56:46;12.19;76.29
9861;DHT22;4969;52.304;4.968;2023-02-21T02:59:16;11.48;76.91
9861;DHT22;4969;52.304;4.968;2023-02-21T03:01:56;11.47;78.68
9861;DHT22;4969;52.304;4.968;2023-02-21T03:04:43;12.03;77.33
9861;DHT22;4969;52.304;4.968;2023-02-21T03:07:18;12.36;76.39
9861;DHT22;4969;52.304;4.968;2023-02-21T03:09:52;12.55;75.11
9861;DHT22;4969;52.304;4.968;2023-02-21T03:12:31;12.03;77.72
9861;DHT22;4969;52.304;4.968;2023-02-21T03:15:02;11.90;76.56
9861;DHT22;4969;52.304;4.968;2023-02-21T03:17:32;11.97;76.75
9861;DHT22;4969;52.304;4.968;2023-02-21T03:20:04;12.14;77.15
9861;DHT22;4969;52.304;4.968;2023-02-21T03:22:34;12.21;77.39
9861;DHT22;4969;52.304;4.968;2023-02-21T03:25:01;11.92;75.13
9861;DHT22;4969;52.304;4.968;2023-02-21T03:27:29;11.67;77.69
9861;DHT22;4969;52.304;4.968;2023-02-21T03:29:59;12.09;77.46
9861;DHT22;4969;52.304;4.968;2023-02-21T03:32:30;11.90;78.77
9861;DHT22;4969;52.304;4.968;2023-02-21T03:34:57;11.96;77.08
9861;DHT22;4969;52.304;4.968;2023-02-21T03:37:29;12.09;77.61
9861;DHT22;4969;52.304;4.968;2023-02-21T03:39:58;11.79;77.77
9861;DHT22;4969;52.304;4.968;2023-02-21T03:42:24;11.65;77.25
9861;DHT22;4969;52.304;4.968;2023-02-21T03:44:51;12.61;77.28
9861;DHT22;4969;52.304;4.968;2023-02-21T03:47:17;12.30;76.22
9861;DHT22;4969;52.304;4.968;2023-02-21T03:49:44;12.16;75.98
9861;DHT22;4969;52.304;4.968;2023-02-21T03:52:11;11.86;75.65
9861;DHT22;4969;52.304;4.968;2023-02-21T03:54:37;11.44;77.45
9861;DHT22;4969;52.304;4.968;2023-02-21T03:57:06;12.38;77.19
9861;DHT22;4969;52.304;4.968;2023-02-21T03:59:32;12.61;77.08
9861;DHT22;4969;52.304;4.968;2023-02-21T04:01:59;12.55;76.72
9861;DHT22;4969;52.304;4.968;2023-02-21T04:04:25;13.07;75.46
9861;DHT22;4969;52.304;4.968;2023-02-21T04:06:52;12.57;75.37
9861;DHT22;4969;52.304;4.968;2023-02-21T04:09:18;12.79;76.05
9861;DHT22;4969;52.304;4.968;2023-02-21T04:11:46;12.73;74.16
9861;DHT22;4969;52.304;4.968;2023-02-21T04:14:14;12.85;74.23
9861;DHT22;4969;52.304;4.968;2023-02-21T04:16:40;12.71;74.16
9861;DHT22;4969;52.304;4.968;2023-02-21T04:19:07;13.48;75.24
9861;DHT22;4969;52.304;4.968;2023-02-21T04:21:34;13.57;74.14
9861;DHT22;4969;52.304;4.968;2023-02-21T04:24:00;13.45;73.28
9861;DHT22;4969;52.304;4.968;2023-02-21T04:26:27;12.62;72.62
9861;DHT22;4969;52.304;4.968;2023-02-21T04:28:54;12.99;74.70
9861;DHT22;4969;52.304;4.968;2023-02-21T04:31:23;13.03;73.73
9861;DHT22;4969;52.304;4.968;2023-02-21T04:33:49;13.16;73.90
9861;DHT22;4969;52.304;4.968;2023-02-21T04:36:16;13.59;72.65
9861;DHT22;4969;52.304;4.968;2023-02-21T04:38:42;12.86;75.11
9861;DHT22;4969;52.304;4.968;2023-02-21T04:41:10;12.96;74.89
9861;DHT22;4969;52.304;4.968;2023-02-21T04:43:37;12.48;76.01
9861;DHT22;4969;52.304;4.968;2023-02-21T04:46:03;12.83;75.45
9861;DHT22;4969;52.304;4.968;2023-02-21T04:48:31;13.06;74.25
9861;DHT22;4969;52.304;4.968;2023-02-21T04:50:58;13.00;73.07
9861;DHT22;4969;52.304;4.968;2023-02-21T04:53:25;13.22;75.67
9861;DHT22;4969;52.304;4.968;2023-02-21T04:55:51;13.10;75.29
9861;DHT22;4969;52.304;4.968;2023-02-21T04:58:18;13.10;75.12
9861;DHT22;4969;52.304;4.968;2023-02-21T05:00:45;12.96;73.42
9861;DHT22;4969;52.304;4.968;2023-02-21T05:03:11;12.99;73.54
9861;DHT22;4969;52.304;4.968;2023-02-21T05:05:39;12.61;74.63
9861;DHT22;4969;52.304;4.968;2023-02-21T05:08:06;12.61;76.67
9861;DHT22;4969;52.304;4.968;2023-02-21T05:10:32;12.71;75.92
9861;DHT22;4969;52.304;4.968;2023-02-21T05:12:59;13.19;75.52
9861;DHT22;4969;52.304;4.968;2023-02-21T05:15:26;13.28;73.05
9861;DHT22;4969;52.304;4.968;2023-02-21T05:17:52;12.55;73.01
9861;DHT22;4969;52.304;4.968;2023-02-21T05:20:19;12.31;75.92
9861;DHT22;4969;52.304;4.968;2023-02-21T05:22:48;12.19;76.52
9861;DHT22;4969;52.304;4.968;2023-02-21T05:25:15;11.90;75.67
9861;DHT22;4969;52.304;4.968;2023-02-21T05:27:42;12.48;76.71
9861;DHT22;4969;52.304;4.968;2023-02-21T05:30:10;12.91;76.73
9861;DHT22;4969;52.304;4.968;2023-02-21T05:32:36;13.09;73.41
9861;DHT22;4969;52.304;4.968;2023-02-21T05:35:04;12.51;73.93
9861;DHT22;4969;52.304;4.968;2023-02-21T05:37:31;12.69;74.62
9861;DHT22;4969;52.304;4.968;2023-02-21T05:39:59;11.59;75.69
9861;DHT22;4969;52.304;4.968;2023-02-21T05:42:25;11.26;77.52
9861;DHT22;4969;52.304;4.968;2023-02-21T05:44:52;11.21;77.85
9861;DHT22;4969;52.304;4.968;2023-02-21T05:47:19;11.03;78.76
9861;DHT22;4969;52.304;4.968;2023-02-21T05:49:45;10.79;79.49
9861;DHT22;4969;52.304;4.968;2023-02-21T05:52:13;10.78;80.07
9861;DHT22;4969;52.304;4.968;2023-02-21T05:54:40;10.55;80.78
9861;DHT22;4969;52.304;4.968;2023-02-21T05:57:08;10.83;80.67
9861;DHT22;4969;52.304;4.968;2023-02-21T05:59:36;11.07;81.06
9861;DHT22;4969;52.304;4.968;2023-02-21T06:02:02;11.12;80.33
9861;DHT22;4969;52.304;4.968;2023-02-21T06:04:29;10.71;80.23
9861;DHT22;4969;52.304;4.968;2023-02-21T06:06:55;10.65;80.55
9861;DHT22;4969;52.304;4.968;2023-02-21T06:09:22;10.54;80.89
9861;DHT22;4969;52.304;4.968;2023-02-21T06:11:49;10.54;81.32
9861;DHT22;4969;52.304;4.968;2023-02-21T06:14:18;10.41;81.56
9861;DHT22;4969;52.304;4.968;2023-02-21T06:16:46;10.60;81.57
9861;DHT22;4969;52.304;4.968;2023-02-21T06:19:14;10.69;80.82
9861;DHT22;4969;52.304;4.968;2023-02-21T06:21:42;10.52;81.45
9861;DHT22;4969;52.304;4.968;2023-02-21T06:24:09;10.91;82.26
9861;DHT22;4969;52.304;4.968;2023-02-21T06:26:36;11.14;79.91
9861;DHT22;4969;52.304;4.968;2023-02-21T06:29:04;10.91;80.19
9861;DHT22;4969;52.304;4.968;2023-02-21T06:31:32;10.71;80.74
9861;DHT22;4969;52.304;4.968;2023-02-21T06:34:00;10.64;81.40
9861;DHT22;4969;52.304;4.968;2023-02-21T06:36:28;10.74;80.77
9861;DHT22;4969;52.304;4.968;2023-02-21T06:38:56;10.63;81.19
9861;DHT22;4969;52.304;4.968;2023-02-21T06:41:25;10.63;81.20
9861;DHT22;4969;52.304;4.968;2023-02-21T06:43:52;10.60;81.65
9861;DHT22;4969;52.304;4.968;2023-02-21T06:46:21;10.75;82.07
9861;DHT22;4969;52.304;4.968;2023-02-21T06:48:49;10.89;80.98
9861;DHT22;4969;52.304;4.968;2023-02-21T06:51:16;10.92;80.45
9861;DHT22;4969;52.304;4.968;2023-02-21T06:53:44;11.06;80.70
9861;DHT22;4969;52.304;4.968;2023-02-21T06:56:14;11.02;80.60
9861;DHT22;4969;52.304;4.968;2023-02-21T06:58:40;11.97;82.32
9861;DHT22;4969;52.304;4.968;2023-02-21T07:01:07;11.92;78.64
9861;DHT22;4969;52.304;4.968;2023-02-21T07:03:38;12.06;79.18
9861;DHT22;4969;52.304;4.968;2023-02-21T07:06:06;11.99;77.58
9861;DHT22;4969;52.304;4.968;2023-02-21T07:08:32;12.30;78.57
9861;DHT22;4969;52.304;4.968;2023-02-21T07:10:59;11.87;75.95
9861;DHT22;4969;52.304;4.968;2023-02-21T07:13:26;11.47;77.82
9861;DHT22;4969;52.304;4.968;2023-02-21T07:15:52;11.46;81.10
9861;DHT22;4969;52.304;4.968;2023-02-21T07:18:19;11.24;78.57
9861;DHT22;4969;52.304;4.968;2023-02-21T07:20:45;11.21;79.76
9861;DHT22;4969;52.304;4.968;2023-02-21T07:23:14;11.40;78.82
9861;DHT22;4969;52.304;4.968;2023-02-21T07:25:40;11.37;79.64
9861;DHT22;4969;52.304;4.968;2023-02-21T07:28:07;11.12;79.36
9861;DHT22;4969;52.304;4.968;2023-02-21T07:30:33;10.97;79.61
9861;DHT22;4969;52.304;4.968;2023-02-21T07:33:00;10.69;80.32
9861;DHT22;4969;52.304;4.968;2023-02-21T07:35:26;10.65;81.44
9861;DHT22;4969;52.304;4.968;2023-02-21T07:37:53;10.58;81.15
9861;DHT22;4969;52.304;4.968;2023-02-21T07:40:21;10.71;81.67
9861;DHT22;4969;52.304;4.968;2023-02-21T07:42:48;10.83;81.70
9861;DHT22;4969;52.304;4.968;2023-02-21T07:45:15;10.93;80.47
9861;DHT22;4969;52.304;4.968;2023-02-21T07:47:43;10.82;82.56
9861;DHT22;4969;52.304;4.968;2023-02-21T07:50:11;10.88;80.76
9861;DHT22;4969;52.304;4.968;2023-02-21T07:52:38;10.85;81.86
9861;DHT22;4969;52.304;4.968;2023-02-21T07:55:05;10.79;80.49
9861;DHT22;4969;52.304;4.968;2023-02-21T07:57:33;11.03;81.93
9861;DHT22;4969;52.304;4.968;2023-02-21T08:00:00;10.96;80.26
9861;DHT22;4969;52.304;4.968;2023-02-21T08:02:26;10.91;81.21
9861;DHT22;4969;52.304;4.968;2023-02-21T08:04:53;11.00;80.63
9861;DHT22;4969;52.304;4.968;2023-02-21T08:07:20;10.79;80.70
9861;DHT22;4969;52.304;4.968;2023-02-21T08:09:46;10.88;81.86
9861;DHT22;4969;52.304;4.968;2023-02-21T08:12:13;11.19;80.13
9861;DHT22;4969;52.304;4.968;2023-02-21T08:14:41;11.58;80.50
9861;DHT22;4969;52.304;4.968;2023-02-21T08:17:07;12.13;82.46
9861;DHT22;4969;52.304;4.968;2023-02-21T08:19:34;12.45;76.89
9861;DHT22;4969;52.304;4.968;2023-02-21T08:22:00;11.86;77.46
9861;DHT22;4969;52.304;4.968;2023-02-21T08:24:27;11.78;77.93
9861;DHT22;4969;52.304;4.968;2023-02-21T08:26:54;12.14;80.37
9861;DHT22;4969;52.304;4.968;2023-02-21T08:29:20;12.67;79.50
9861;DHT22;4969;52.304;4.968;2023-02-21T08:31:48;13.13;78.57
9861;DHT22;4969;52.304;4.968;2023-02-21T08:34:15;13.10;77.76
9861;DHT22;4969;52.304;4.968;2023-02-21T08:36:42;13.28;76.40
9861;DHT22;4969;52.304;4.968;2023-02-21T08:39:09;12.92;72.99
9861;DHT22;4969;52.304;4.968;2023-02-21T08:41:36;11.93;75.58
9861;DHT22;4969;52.304;4.968;2023-02-21T08:44:04;11.99;77.06
9861;DHT22;4969;52.304;4.968;2023-02-21T08:46:31;11.57;77.44
9861;DHT22;4969;52.304;4.968;2023-02-21T08:48:59;11.24;78.73
9861;DHT22;4969;52.304;4.968;2023-02-21T08:51:27;11.19;79.15
9861;DHT22;4969;52.304;4.968;2023-02-21T08:53:54;11.24;80.56
9861;DHT22;4969;52.304;4.968;2023-02-21T08:56:21;11.78;80.63
9861;DHT22;4969;52.304;4.968;2023-02-21T08:58:49;11.51;78.09
9861;DHT22;4969;52.304;4.968;2023-02-21T09:01:16;11.19;79.25
9861;DHT22;4969;52.304;4.968;2023-02-21T09:03:42;11.06;79.81
9861;DHT22;4969;52.304;4.968;2023-02-21T09:06:10;10.93;80.51
9861;DHT22;4969;52.304;4.968;2023-02-21T09:08:37;10.96;80.83
9861;DHT22;4969;52.304;4.968;2023-02-21T09:11:05;10.85;80.61
9861;DHT22;4969;52.304;4.968;2023-02-21T09:13:32;10.76;81.57
9861;DHT22;4969;52.304;4.968;2023-02-21T09:15:59;10.88;81.54
9861;DHT22;4969;52.304;4.968;2023-02-21T09:18:26;10.81;81.41
9861;DHT22;4969;52.304;4.968;2023-02-21T09:20:53;10.93;82.39
9861;DHT22;4969;52.304;4.968;2023-02-21T09:23:23;11.14;81.34
9861;DHT22;4969;52.304;4.968;2023-02-21T09:25:51;10.96;80.77
9861;DHT22;4969;52.304;4.968;2023-02-21T09:28:18;10.85;81.14
9861;DHT22;4969;52.304;4.968;2023-02-21T09:30:45;11.04;83.07
9861;DHT22;4969;52.304;4.968;2023-02-21T09:33:12;11.13;82.53
9861;DHT22;4969;52.304;4.968;2023-02-21T09:35:39;11.06;80.63
9861;DHT22;4969;52.304;4.968;2023-02-21T09:38:07;10.95;80.96
9861;DHT22;4969;52.304;4.968;2023-02-21T09:40:40;10.92;81.39
9861;DHT22;4969;52.304;4.968;2023-02-21T09:43:12;11.12;82.69
9861;DHT22;4969;52.304;4.968;2023-02-21T09:45:40;11.03;81.04
9861;DHT22;4969;52.304;4.968;2023-02-21T09:48:12;11.57;81.41
9861;DHT22;4969;52.304;4.968;2023-02-21T09:50:42;11.27;79.92
9861;DHT22;4969;52.304;4.968;2023-02-21T09:53:12;11.23;80.66
9861;DHT22;4969;52.304;4.968;2023-02-21T09:55:42;11.20;80.65
9861;DHT22;4969;52.304;4.968;2023-02-21T09:58:11;11.13;80.75
9861;DHT22;4969;52.304;4.968;2023-02-21T10:00:38;11.83;80.39
9861;DHT22;4969;52.304;4.968;2023-02-21T10:03:21;11.38;79.05
9861;DHT22;4969;52.304;4.968;2023-02-21T10:05:53;11.20;79.96
9861;DHT22;4969;52.304;4.968;2023-02-21T10:08:27;11.24;79.86
9861;DHT22;4969;52.304;4.968;2023-02-21T10:11:14;11.21;80.23
9861;DHT22;4969;52.304;4.968;2023-02-21T10:13:50;11.13;80.60
9861;DHT22;4969;52.304;4.968;2023-02-21T10:16:21;11.27;82.33
9861;DHT22;4969;52.304;4.968;2023-02-21T10:18:55;11.12;80.63
9861;DHT22;4969;52.304;4.968;2023-02-21T10:21:29;11.58;84.80
9861;DHT22;4969;52.304;4.968;2023-02-21T10:23:57;11.64;81.21
9861;DHT22;4969;52.304;4.968;2023-02-21T10:26:33;11.43;81.43
9861;DHT22;4969;52.304;4.968;2023-02-21T10:29:03;11.64;80.54
9861;DHT22;4969;52.304;4.968;2023-02-21T10:31:34;11.34;79.58
9861;DHT22;4969;52.304;4.968;2023-02-21T10:34:01;11.83;81.46
9861;DHT22;4969;52.304;4.968;2023-02-21T10:36:28;11.69;79.40
9861;DHT22;4969;52.304;4.968;2023-02-21T10:38:57;11.96;79.21
9861;DHT22;4969;52.304;4.968;2023-02-21T10:41:28;12.09;79.78
9861;DHT22;4969;52.304;4.968;2023-02-21T10:43:59;11.72;78.92
9861;DHT22;4969;52.304;4.968;2023-02-21T10:46:31;11.51;79.34
9861;DHT22;4969;52.304;4.968;2023-02-21T10:49:16;11.55;80.35
9861;DHT22;4969;52.304;4.968;2023-02-21T10:51:44;11.64;81.19
9861;DHT22;4969;52.304;4.968;2023-02-21T10:54:21;12.33;80.88
9861;DHT22;4969;52.304;4.968;2023-02-21T10:56:49;13.52;79.72
9861;DHT22;4969;52.304;4.968;2023-02-21T10:59:24;13.03;75.80
9861;DHT22;4969;52.304;4.968;2023-02-21T11:01:52;12.89;77.01
9861;DHT22;4969;52.304;4.968;2023-02-21T11:04:24;12.80;77.73
9861;DHT22;4969;52.304;4.968;2023-02-21T11:06:54;12.88;75.44
9861;DHT22;4969;52.304;4.968;2023-02-21T11:09:34;12.64;76.43
9861;DHT22;4969;52.304;4.968;2023-02-21T11:12:04;12.13;76.06
9861;DHT22;4969;52.304;4.968;2023-02-21T11:14:34;12.24;76.46
9861;DHT22;4969;52.304;4.968;2023-02-21T11:17:08;12.14;76.86
9861;DHT22;4969;52.304;4.968;2023-02-21T11:19:48;12.82;76.82
9861;DHT22;4969;52.304;4.968;2023-02-21T11:22:18;13.02;73.96
9861;DHT22;4969;52.304;4.968;2023-02-21T11:24:51;12.54;75.01
9861;DHT22;4969;52.304;4.968;2023-02-21T11:27:19;12.16;75.66
9861;DHT22;4969;52.304;4.968;2023-02-21T11:29:49;12.51;76.52
9861;DHT22;4969;52.304;4.968;2023-02-21T11:32:26;12.38;75.73
9861;DHT22;4969;52.304;4.968;2023-02-21T11:35:05;12.14;76.89
9861;DHT22;4969;52.304;4.968;2023-02-21T11:37:33;12.16;78.17
9861;DHT22;4969;52.304;4.968;2023-02-21T11:40:00;12.27;78.39
9861;DHT22;4969;52.304;4.968;2023-02-21T11:42:31;12.51;78.16
9861;DHT22;4969;52.304;4.968;2023-02-21T11:45:18;12.75;77.10
9861;DHT22;4969;52.304;4.968;2023-02-21T11:47:54;12.69;75.67
9861;DHT22;4969;52.304;4.968;2023-02-21T11:50:25;12.67;75.52
9861;DHT22;4969;52.304;4.968;2023-02-21T11:52:58;12.57;74.28
9861;DHT22;4969;52.304;4.968;2023-02-21T11:55:25;12.62;77.98
9861;DHT22;4969;52.304;4.968;2023-02-21T11:58:00;12.52;76.38
9861;DHT22;4969;52.304;4.968;2023-02-21T12:00:37;12.50;75.75
9861;DHT22;4969;52.304;4.968;2023-02-21T12:03:33;12.71;76.30
9861;DHT22;4969;52.304;4.968;2023-02-21T12:06:06;12.83;75.37
9861;DHT22;4969;52.304;4.968;2023-02-21T12:08:42;12.93;74.27
9861;DHT22;4969;52.304;4.968;2023-02-21T12:11:24;12.48;75.04
9861;DHT22;4969;52.304;4.968;2023-02-21T12:14:06;12.38;74.54
9861;DHT22;4969;52.304;4.968;2023-02-21T12:16:44;12.42;78.76
9861;DHT22;4969;52.304;4.968;2023-02-21T12:19:33;13.42;76.05
9861;DHT22;4969;52.304;4.968;2023-02-21T12:22:10;13.50;73.44
9861;DHT22;4969;52.304;4.968;2023-02-21T12:24:48;13.42;75.07
9861;DHT22;4969;52.304;4.968;2023-02-21T12:27:25;13.99;75.60
9861;DHT22;4969;52.304;4.968;2023-02-21T12:30:16;13.86;74.89
9861;DHT22;4969;52.304;4.968;2023-02-21T12:32:50;14.16;73.57
9861;DHT22;4969;52.304;4.968;2023-02-21T12:35:51;13.78;73.39
9861;DHT22;4969;52.304;4.968;2023-02-21T12:38:30;13.31;75.40
9861;DHT22;4969;52.304;4.968;2023-02-21T12:41:04;13.93;75.78
9861;DHT22;4969;52.304;4.968;2023-02-21T12:43:45;13.86;74.61
9861;DHT22;4969;52.304;4.968;2023-02-21T12:46:20;14.41;74.39
9861;DHT22;4969;52.304;4.968;2023-02-21T12:48:53;15.18;71.50
9861;DHT22;4969;52.304;4.968;2023-02-21T12:51:25;14.96;70.97
9861;DHT22;4969;52.304;4.968;2023-02-21T12:53:58;14.64;69.53
9861;DHT22;4969;52.304;4.968;2023-02-21T12:56:29;14.88;72.49
9861;DHT22;4969;52.304;4.968;2023-02-21T12:58:59;15.45;70.52
9861;DHT22;4969;52.304;4.968;2023-02-21T13:01:31;15.43;69.99
9861;DHT22;4969;52.304;4.968;2023-02-21T13:04:10;15.20;70.18
9861;DHT22;4969;52.304;4.968;2023-02-21T13:06:43;14.82;71.32
9861;DHT22;4969;52.304;4.968;2023-02-21T13:09:19;15.18;69.95
9861;DHT22;4969;52.304;4.968;2023-02-21T13:11:55;14.82;69.85
9861;DHT22;4969;52.304;4.968;2023-02-21T13:14:27;14.79;71.83
9861;DHT22;4969;52.304;4.968;2023-02-21T13:16:56;14.85;71.18
9861;DHT22;4969;52.304;4.968;2023-02-21T13:19:25;14.52;70.45
9861;DHT22;4969;52.304;4.968;2023-02-21T13:22:07;13.65;71.69
9861;DHT22;4969;52.304;4.968;2023-02-21T13:24:54;14.10;75.16
9861;DHT22;4969;52.304;4.968;2023-02-21T13:27:43;14.69;71.80
9861;DHT22;4969;52.304;4.968;2023-02-21T13:30:21;14.60;69.72
9861;DHT22;4969;52.304;4.968;2023-02-21T13:32:51;13.99;72.00
9861;DHT22;4969;52.304;4.968;2023-02-21T13:35:26;14.50;71.72
9861;DHT22;4969;52.304;4.968;2023-02-21T13:37:55;14.34;72.54
9861;DHT22;4969;52.304;4.968;2023-02-21T13:40:24;15.09;70.62
9861;DHT22;4969;52.304;4.968;2023-02-21T13:43:04;14.21;69.61
9861;DHT22;4969;52.304;4.968;2023-02-21T13:45:31;13.63;73.40
9861;DHT22;4969;52.304;4.968;2023-02-21T13:48:28;14.09;74.04
9861;DHT22;4969;52.304;4.968;2023-02-21T13:50:57;14.55;73.15
9861;DHT22;4969;52.304;4.968;2023-02-21T13:53:26;14.37;72.39
9861;DHT22;4969;52.304;4.968;2023-02-21T13:56:38;15.23;71.51
9861;DHT22;4969;52.304;4.968;2023-02-21T13:59:29;15.37;70.90
9861;DHT22;4969;52.304;4.968;2023-02-21T14:02:16;14.95;69.06
9861;DHT22;4969;52.304;4.968;2023-02-21T14:05:04;14.38;70.71
9861;DHT22;4969;52.304;4.968;2023-02-21T14:07:57;14.42;72.80
9861;DHT22;4969;52.304;4.968;2023-02-21T14:10:36;14.55;71.45
9861;DHT22;4969;52.304;4.968;2023-02-21T14:13:06;14.34;72.90
9861;DHT22;4969;52.304;4.968;2023-02-21T14:15:39;14.68;73.00
9861;DHT22;4969;52.304;4.968;2023-02-21T14:18:14;14.57;71.25
9861;DHT22;4969;52.304;4.968;2023-02-21T14:20:45;14.38;70.42
9861;DHT22;4969;52.304;4.968;2023-02-21T14:23:15;14.26;73.21
9861;DHT22;4969;52.304;4.968;2023-02-21T14:25:53;14.47;72.85
9861;DHT22;4969;52.304;4.968;2023-02-21T14:28:49;14.12;71.46
9861;DHT22;4969;52.304;4.968;2023-02-21T14:34:21;15.00;73.65
9861;DHT22;4969;52.304;4.968;2023-02-21T14:36:50;15.59;72.22
9861;DHT22;4969;52.304;4.968;2023-02-21T14:39:19;15.40;70.32
9861;DHT22;4969;52.304;4.968;2023-02-21T14:42:00;15.51;69.43
9861;DHT22;4969;52.304;4.968;2023-02-21T14:44:35;15.83;70.54
9861;DHT22;4969;52.304;4.968;2023-02-21T14:47:31;15.92;71.06
9861;DHT22;4969;52.304;4.968;2023-02-21T14:50:13;16.05;69.45
9861;DHT22;4969;52.304;4.968;2023-02-21T14:56:11;14.51;71.46
9861;DHT22;4969;52.304;4.968;2023-02-21T14:58:53;14.75;71.83
9861;DHT22;4969;52.304;4.968;2023-02-21T15:01:38;14.60;71.54
9861;DHT22;4969;52.304;4.968;2023-02-21T15:04:12;15.17;71.17
9861;DHT22;4969;52.304;4.968;2023-02-21T15:06:43;15.34;69.29
9861;DHT22;4969;52.304;4.968;2023-02-21T15:09:12;15.21;72.53
9861;DHT22;4969;52.304;4.968;2023-02-21T15:11:45;14.62;68.65
9861;DHT22;4969;52.304;4.968;2023-02-21T15:14:16;14.52;71.44
9861;DHT22;4969;52.304;4.968;2023-02-21T15:16:51;15.18;73.39
9861;DHT22;4969;52.304;4.968;2023-02-21T15:19:21;15.54;70.69
9861;DHT22;4969;52.304;4.968;2023-02-21T15:22:14;15.47;70.57
9861;DHT22;4969;52.304;4.968;2023-02-21T15:24:41;14.60;68.78
9861;DHT22;4969;52.304;4.968;2023-02-21T15:27:22;15.21;70.28
9861;DHT22;4969;52.304;4.968;2023-02-21T15:30:03;14.99;69.10
9861;DHT22;4969;52.304;4.968;2023-02-21T15:32:30;15.40;68.61
9861;DHT22;4969;52.304;4.968;2023-02-21T15:34:57;15.58;69.16
9861;DHT22;4969;52.304;4.968;2023-02-21T15:37:26;15.17;67.97
9861;DHT22;4969;52.304;4.968;2023-02-21T15:39:56;14.99;69.42
9861;DHT22;4969;52.304;4.968;2023-02-21T15:42:27;15.30;71.12
9861;DHT22;4969;52.304;4.968;2023-02-21T15:44:56;15.02;69.91
9861;DHT22;4969;52.304;4.968;2023-02-21T15:47:26;14.24;68.07
9861;DHT22;4969;52.304;4.968;2023-02-21T15:49:59;14.81;71.96
9861;DHT22;4969;52.304;4.968;2023-02-21T15:52:30;14.42;70.45
9861;DHT22;4969;52.304;4.968;2023-02-21T15:55:26;14.51;70.19
9861;DHT22;4969;52.304;4.968;2023-02-21T15:58:00;15.13;70.65
9861;DHT22;4969;52.304;4.968;2023-02-21T16:00:28;15.36;65.65
9861;DHT22;4969;52.304;4.968;2023-02-21T16:06:19;14.89;69.22
9861;DHT22;4969;52.304;4.968;2023-02-21T16:09:05;15.64;70.69
9861;DHT22;4969;52.304;4.968;2023-02-21T16:11:42;15.66;65.55
9861;DHT22;4969;52.304;4.968;2023-02-21T16:14:17;15.55;67.58
9861;DHT22;4969;52.304;4.968;2023-02-21T16:16:45;15.30;68.93
9861;DHT22;4969;52.304;4.968;2023-02-21T16:19:18;14.73;68.15
9861;DHT22;4969;52.304;4.968;2023-02-21T16:21:45;15.20;71.09
9861;DHT22;4969;52.304;4.968;2023-02-21T16:24:29;15.24;68.29
9861;DHT22;4969;52.304;4.968;2023-02-21T16:27:04;14.28;66.80
9861;DHT22;4969;52.304;4.968;2023-02-21T16:29:33;13.45;70.55
9861;DHT22;4969;52.304;4.968;2023-02-21T16:32:00;13.33;68.35
9861;DHT22;4969;52.304;4.968;2023-02-21T16:34:29;13.00;69.32
9861;DHT22;4969;52.304;4.968;2023-02-21T16:37:01;12.44;69.16
9861;DHT22;4969;52.304;4.968;2023-02-21T16:39:28;11.97;71.86
9861;DHT22;4969;52.304;4.968;2023-02-21T16:41:55;11.72;72.72
9861;DHT22;4969;52.304;4.968;2023-02-21T16:44:21;11.99;74.11
9861;DHT22;4969;52.304;4.968;2023-02-21T16:46:50;13.07;72.15
9861;DHT22;4969;52.304;4.968;2023-02-21T16:49:17;12.48;72.62
9861;DHT22;4969;52.304;4.968;2023-02-21T16:51:43;13.69;74.91
9861;DHT22;4969;52.304;4.968;2023-02-21T16:54:10;13.10;68.13
9861;DHT22;4969;52.304;4.968;2023-02-21T16:56:38;12.85;73.41
9861;DHT22;4969;52.304;4.968;2023-02-21T16:59:08;13.09;71.07